Startpagina
METAR-TAF:

METAR-TAF

Vliegvelden :

Foz do Iguaçu, Paraná, Brazilië

Aeroporto Internacional de Foz do Iguaçu

breedte: 25-31S, lengte: 054-35W, hoogte: 180 m

Actueel weer

Dit bericht is 54 minuten geleden gemaakt, om 12:00 UTC
Wind 8 kt uit het noorden
Temperatuur 25°C
Vochtigheid 89%
Druk 1015 hPa
Zicht 10 km of meer
geen wolken onder 1500 m en geen cumulonimbus

METAR: SBFI 261200Z 36008KT CAVOK 25/23 Q1015

Tijdstip: 09:54 (12:54 UTC)

Verwachting

Dit bericht is 3 uur en het 24 minuten geleden gemaakt, om 09:30 UTC
Verwachting geldig van 26 om 12 UTC tot 27 om 12 UTC
Wind 6 kt uit het noorden
Zicht 10 km of meer
Weinig wolken op 3000 ft
Weinig wolken op 3500 ft, Stapelwolken.
regenbuien
Kans 30% :
Tijdelijke
van 27 om 00 UTC tot 27 om 06 UTC
Wind 2 kt uit variabele richting
Wijzigt naar
van 27 om 06 UTC tot 27 om 10 UTC
onweer

TAF: SBFI 260930Z 2612/2712 36006KT 9999 SHRA FEW030 FEW035TCU TN24/26 12Z TX29/2617Z PROB30 TEMPO 2700/2706 VRB02KT BECMG 2706/2710 TS FEW035C B RMK PDN

Waarnemingen en weersverwachtingen van meer dan 4000 vliegvelden (METAR en TAF).

De beschikbare stations zijn de gele en rode punten op de kaart.

Ga met uw muis naar het station om de naam te zien.

Klik dan om waarnemingen en weersverwachtingen te zien.

kaart wijzigen: klik op de groene knoppen met een zwart kruis om in te zoomen, op de groene knop met een streepje om uit te zoomen of op de groene pijlen voor aangrenzende kaarten.


METAR-TAF: